sensor_id;sensor_type;location;lat;lon;timestamp;temperature;humidity
37956;DHT22;23776;51.592;7.180;2022-11-23T00:00:58;8.30;1.00
37956;DHT22;23776;51.592;7.180;2022-11-23T00:03:24;8.30;1.00
37956;DHT22;23776;51.592;7.180;2022-11-23T00:05:50;8.30;1.00
37956;DHT22;23776;51.592;7.180;2022-11-23T00:08:15;8.40;1.00
37956;DHT22;23776;51.592;7.180;2022-11-23T00:10:41;8.30;1.00
37956;DHT22;23776;51.592;7.180;2022-11-23T00:13:07;8.40;1.00
37956;DHT22;23776;51.592;7.180;2022-11-23T00:15:32;8.40;1.00
37956;DHT22;23776;51.592;7.180;2022-11-23T00:17:58;8.40;1.00
37956;DHT22;23776;51.592;7.180;2022-11-23T00:20:27;8.50;1.00
37956;DHT22;23776;51.592;7.180;2022-11-23T00:22:52;8.50;1.00
37956;DHT22;23776;51.592;7.180;2022-11-23T00:25:18;8.50;1.00
37956;DHT22;23776;51.592;7.180;2022-11-23T00:27:43;8.50;1.00
37956;DHT22;23776;51.592;7.180;2022-11-23T00:30:09;8.50;1.00
37956;DHT22;23776;51.592;7.180;2022-11-23T00:32:35;8.60;1.00
37956;DHT22;23776;51.592;7.180;2022-11-23T00:35:00;7.20;1.00
37956;DHT22;23776;51.592;7.180;2022-11-23T00:37:26;8.60;1.00
37956;DHT22;23776;51.592;7.180;2022-11-23T00:39:51;8.60;1.00
37956;DHT22;23776;51.592;7.180;2022-11-23T00:42:17;8.50;1.00
37956;DHT22;23776;51.592;7.180;2022-11-23T00:44:43;8.70;1.00
37956;DHT22;23776;51.592;7.180;2022-11-23T00:47:08;8.70;1.00
37956;DHT22;23776;51.592;7.180;2022-11-23T00:49:34;7.60;1.00
37956;DHT22;23776;51.592;7.180;2022-11-23T00:51:59;8.70;1.00
37956;DHT22;23776;51.592;7.180;2022-11-23T00:54:25;8.70;1.00
37956;DHT22;23776;51.592;7.180;2022-11-23T00:56:50;8.70;1.00
37956;DHT22;23776;51.592;7.180;2022-11-23T00:59:16;8.80;1.00
37956;DHT22;23776;51.592;7.180;2022-11-23T01:01:41;8.70;1.00
37956;DHT22;23776;51.592;7.180;2022-11-23T01:04:07;8.70;1.00
37956;DHT22;23776;51.592;7.180;2022-11-23T01:06:38;8.60;1.00
37956;DHT22;23776;51.592;7.180;2022-11-23T01:09:12;7.30;1.00
37956;DHT22;23776;51.592;7.180;2022-11-23T01:11:38;8.60;1.00
37956;DHT22;23776;51.592;7.180;2022-11-23T01:14:04;8.60;1.00
37956;DHT22;23776;51.592;7.180;2022-11-23T01:16:38;8.60;1.00
37956;DHT22;23776;51.592;7.180;2022-11-23T01:19:07;8.60;1.00
37956;DHT22;23776;51.592;7.180;2022-11-23T01:21:33;8.60;1.00
37956;DHT22;23776;51.592;7.180;2022-11-23T01:24:00;8.60;1.00
37956;DHT22;23776;51.592;7.180;2022-11-23T01:26:28;8.60;1.00
37956;DHT22;23776;51.592;7.180;2022-11-23T01:28:53;8.60;1.00
37956;DHT22;23776;51.592;7.180;2022-11-23T01:31:24;8.60;1.00
37956;DHT22;23776;51.592;7.180;2022-11-23T01:33:54;8.60;1.00
37956;DHT22;23776;51.592;7.180;2022-11-23T01:36:23;8.70;1.00
37956;DHT22;23776;51.592;7.180;2022-11-23T01:38:49;8.70;1.00
37956;DHT22;23776;51.592;7.180;2022-11-23T01:41:27;8.70;1.00
37956;DHT22;23776;51.592;7.180;2022-11-23T01:43:53;8.70;1.00
37956;DHT22;23776;51.592;7.180;2022-11-23T01:46:19;8.70;1.00
37956;DHT22;23776;51.592;7.180;2022-11-23T01:48:56;8.70;1.00
37956;DHT22;23776;51.592;7.180;2022-11-23T01:51:27;8.70;1.00
37956;DHT22;23776;51.592;7.180;2022-11-23T01:53:57;8.70;1.00
37956;DHT22;23776;51.592;7.180;2022-11-23T01:56:28;8.70;1.00
37956;DHT22;23776;51.592;7.180;2022-11-23T01:58:57;8.70;1.00
37956;DHT22;23776;51.592;7.180;2022-11-23T02:01:23;8.60;1.00
37956;DHT22;23776;51.592;7.180;2022-11-23T02:03:50;8.60;1.00
37956;DHT22;23776;51.592;7.180;2022-11-23T02:06:17;8.70;1.00
37956;DHT22;23776;51.592;7.180;2022-11-23T02:08:44;8.70;1.00
37956;DHT22;23776;51.592;7.180;2022-11-23T02:11:11;8.70;1.00
37956;DHT22;23776;51.592;7.180;2022-11-23T02:13:37;8.60;1.00
37956;DHT22;23776;51.592;7.180;2022-11-23T02:16:04;8.70;1.00
37956;DHT22;23776;51.592;7.180;2022-11-23T02:18:31;8.70;1.00
37956;DHT22;23776;51.592;7.180;2022-11-23T02:20:59;8.60;1.00
37956;DHT22;23776;51.592;7.180;2022-11-23T02:26:20;8.60;1.00
37956;DHT22;23776;51.592;7.180;2022-11-23T02:29:09;8.60;1.00
37956;DHT22;23776;51.592;7.180;2022-11-23T02:31:36;8.70;1.00
37956;DHT22;23776;51.592;7.180;2022-11-23T02:34:02;8.70;1.00
37956;DHT22;23776;51.592;7.180;2022-11-23T02:39:02;8.80;1.00
37956;DHT22;23776;51.592;7.180;2022-11-23T02:41:38;8.80;1.00
37956;DHT22;23776;51.592;7.180;2022-11-23T02:44:07;8.90;1.00
37956;DHT22;23776;51.592;7.180;2022-11-23T02:46:34;9.00;1.00
37956;DHT22;23776;51.592;7.180;2022-11-23T02:49:00;9.00;1.00
37956;DHT22;23776;51.592;7.180;2022-11-23T02:51:25;9.10;1.00
37956;DHT22;23776;51.592;7.180;2022-11-23T02:53:51;9.20;1.00
37956;DHT22;23776;51.592;7.180;2022-11-23T02:56:16;9.20;1.00
37956;DHT22;23776;51.592;7.180;2022-11-23T02:58:42;9.10;1.00
37956;DHT22;23776;51.592;7.180;2022-11-23T03:01:08;9.20;1.00
37956;DHT22;23776;51.592;7.180;2022-11-23T03:03:33;9.20;1.00
37956;DHT22;23776;51.592;7.180;2022-11-23T03:05:59;9.20;1.00
37956;DHT22;23776;51.592;7.180;2022-11-23T03:08:24;9.20;1.00
37956;DHT22;23776;51.592;7.180;2022-11-23T03:10:50;9.20;1.00
37956;DHT22;23776;51.592;7.180;2022-11-23T03:13:15;9.20;1.00
37956;DHT22;23776;51.592;7.180;2022-11-23T03:15:41;9.30;1.00
37956;DHT22;23776;51.592;7.180;2022-11-23T03:18:06;9.30;1.00
37956;DHT22;23776;51.592;7.180;2022-11-23T03:20:32;9.30;1.00
37956;DHT22;23776;51.592;7.180;2022-11-23T03:22:58;9.40;1.00
37956;DHT22;23776;51.592;7.180;2022-11-23T03:25:23;9.40;1.00
37956;DHT22;23776;51.592;7.180;2022-11-23T03:27:49;9.40;1.00
37956;DHT22;23776;51.592;7.180;2022-11-23T03:30:14;9.30;1.00
37956;DHT22;23776;51.592;7.180;2022-11-23T03:32:40;9.40;1.00
37956;DHT22;23776;51.592;7.180;2022-11-23T03:35:06;9.40;1.00
37956;DHT22;23776;51.592;7.180;2022-11-23T03:37:32;9.40;1.00
37956;DHT22;23776;51.592;7.180;2022-11-23T03:39:58;9.40;1.00
37956;DHT22;23776;51.592;7.180;2022-11-23T03:42:24;9.50;1.00
37956;DHT22;23776;51.592;7.180;2022-11-23T03:44:49;9.30;1.00
37956;DHT22;23776;51.592;7.180;2022-11-23T03:47:15;9.30;1.00
37956;DHT22;23776;51.592;7.180;2022-11-23T03:49:40;9.40;1.00
37956;DHT22;23776;51.592;7.180;2022-11-23T03:52:06;9.50;1.00
37956;DHT22;23776;51.592;7.180;2022-11-23T03:54:31;9.50;1.00
37956;DHT22;23776;51.592;7.180;2022-11-23T03:56:57;9.40;1.00
37956;DHT22;23776;51.592;7.180;2022-11-23T03:59:23;9.30;1.00
37956;DHT22;23776;51.592;7.180;2022-11-23T04:01:48;9.30;1.00
37956;DHT22;23776;51.592;7.180;2022-11-23T04:04:14;9.20;1.00
37956;DHT22;23776;51.592;7.180;2022-11-23T04:06:40;9.00;1.00
37956;DHT22;23776;51.592;7.180;2022-11-23T04:09:05;9.00;1.00
37956;DHT22;23776;51.592;7.180;2022-11-23T04:11:31;8.90;1.00
37956;DHT22;23776;51.592;7.180;2022-11-23T04:13:56;8.90;1.00
37956;DHT22;23776;51.592;7.180;2022-11-23T04:16:22;8.80;1.00
37956;DHT22;23776;51.592;7.180;2022-11-23T04:18:47;8.80;1.60
37956;DHT22;23776;51.592;7.180;2022-11-23T04:21:13;8.70;10.70
37956;DHT22;23776;51.592;7.180;2022-11-23T04:23:38;8.70;10.80
37956;DHT22;23776;51.592;7.180;2022-11-23T04:26:04;8.60;19.10
37956;DHT22;23776;51.592;7.180;2022-11-23T04:28:30;8.50;22.80
37956;DHT22;23776;51.592;7.180;2022-11-23T04:30:55;8.50;23.40
37956;DHT22;23776;51.592;7.180;2022-11-23T04:33:23;8.50;24.20
37956;DHT22;23776;51.592;7.180;2022-11-23T04:35:49;8.50;23.40
37956;DHT22;23776;51.592;7.180;2022-11-23T04:38:14;8.50;22.50
37956;DHT22;23776;51.592;7.180;2022-11-23T04:40:40;8.50;22.30
37956;DHT22;23776;51.592;7.180;2022-11-23T04:43:05;8.50;21.00
37956;DHT22;23776;51.592;7.180;2022-11-23T04:45:31;8.50;21.00
37956;DHT22;23776;51.592;7.180;2022-11-23T04:47:56;8.50;19.90
37956;DHT22;23776;51.592;7.180;2022-11-23T04:50:22;8.50;23.20
37956;DHT22;23776;51.592;7.180;2022-11-23T04:52:47;8.60;23.70
37956;DHT22;23776;51.592;7.180;2022-11-23T04:55:13;8.60;21.60
37956;DHT22;23776;51.592;7.180;2022-11-23T04:57:39;8.60;19.50
37956;DHT22;23776;51.592;7.180;2022-11-23T05:00:05;8.70;16.20
37956;DHT22;23776;51.592;7.180;2022-11-23T05:02:30;8.60;17.30
37956;DHT22;23776;51.592;7.180;2022-11-23T05:04:56;8.60;14.10
37956;DHT22;23776;51.592;7.180;2022-11-23T05:07:22;8.60;13.70
37956;DHT22;23776;51.592;7.180;2022-11-23T05:09:47;8.60;16.20
37956;DHT22;23776;51.592;7.180;2022-11-23T05:12:13;8.60;14.80
37956;DHT22;23776;51.592;7.180;2022-11-23T05:14:38;8.60;17.80
37956;DHT22;23776;51.592;7.180;2022-11-23T05:17:04;8.60;11.80
37956;DHT22;23776;51.592;7.180;2022-11-23T05:19:30;6.80;13.10
37956;DHT22;23776;51.592;7.180;2022-11-23T05:21:55;8.60;14.50
37956;DHT22;23776;51.592;7.180;2022-11-23T05:24:21;8.60;13.30
37956;DHT22;23776;51.592;7.180;2022-11-23T05:26:46;8.50;17.70
37956;DHT22;23776;51.592;7.180;2022-11-23T05:29:12;8.50;18.00
37956;DHT22;23776;51.592;7.180;2022-11-23T05:31:37;8.50;20.50
37956;DHT22;23776;51.592;7.180;2022-11-23T05:34:03;8.50;19.40
37956;DHT22;23776;51.592;7.180;2022-11-23T05:36:28;8.50;22.70
37956;DHT22;23776;51.592;7.180;2022-11-23T05:38:54;8.40;21.10
37956;DHT22;23776;51.592;7.180;2022-11-23T05:41:20;8.40;21.50
37956;DHT22;23776;51.592;7.180;2022-11-23T05:43:45;8.40;22.80
37956;DHT22;23776;51.592;7.180;2022-11-23T05:46:11;8.40;26.50
37956;DHT22;23776;51.592;7.180;2022-11-23T05:48:36;8.40;25.30
37956;DHT22;23776;51.592;7.180;2022-11-23T05:51:02;8.40;25.90
37956;DHT22;23776;51.592;7.180;2022-11-23T05:53:28;8.30;24.90
37956;DHT22;23776;51.592;7.180;2022-11-23T05:55:58;8.40;23.60
37956;DHT22;23776;51.592;7.180;2022-11-23T05:58:24;8.40;24.00
37956;DHT22;23776;51.592;7.180;2022-11-23T06:00:50;8.40;24.40
37956;DHT22;23776;51.592;7.180;2022-11-23T06:03:15;8.40;25.10
37956;DHT22;23776;51.592;7.180;2022-11-23T06:05:41;8.40;24.20
37956;DHT22;23776;51.592;7.180;2022-11-23T06:08:06;8.30;24.40
37956;DHT22;23776;51.592;7.180;2022-11-23T06:10:32;8.30;24.30
37956;DHT22;23776;51.592;7.180;2022-11-23T06:13:02;8.30;26.10
37956;DHT22;23776;51.592;7.180;2022-11-23T06:15:28;8.30;25.10
37956;DHT22;23776;51.592;7.180;2022-11-23T06:17:58;9.10;24.90
37956;DHT22;23776;51.592;7.180;2022-11-23T06:20:23;8.30;25.80
37956;DHT22;23776;51.592;7.180;2022-11-23T06:22:53;8.30;23.70
37956;DHT22;23776;51.592;7.180;2022-11-23T06:25:19;8.30;24.20
37956;DHT22;23776;51.592;7.180;2022-11-23T06:27:56;8.30;22.90
37956;DHT22;23776;51.592;7.180;2022-11-23T06:30:22;8.30;24.50
37956;DHT22;23776;51.592;7.180;2022-11-23T06:32:48;8.30;23.60
37956;DHT22;23776;51.592;7.180;2022-11-23T06:35:14;8.30;20.90
37956;DHT22;23776;51.592;7.180;2022-11-23T06:37:40;8.40;19.10
37956;DHT22;23776;51.592;7.180;2022-11-23T06:40:06;8.40;19.10
37956;DHT22;23776;51.592;7.180;2022-11-23T06:42:32;8.30;18.10
37956;DHT22;23776;51.592;7.180;2022-11-23T06:44:57;8.30;16.50
37956;DHT22;23776;51.592;7.180;2022-11-23T06:47:23;8.30;15.80
37956;DHT22;23776;51.592;7.180;2022-11-23T06:49:49;8.30;16.10
37956;DHT22;23776;51.592;7.180;2022-11-23T06:52:14;8.30;19.50
37956;DHT22;23776;51.592;7.180;2022-11-23T06:54:40;8.30;17.00
37956;DHT22;23776;51.592;7.180;2022-11-23T06:57:09;8.40;14.50
37956;DHT22;23776;51.592;7.180;2022-11-23T06:59:35;8.30;11.00
37956;DHT22;23776;51.592;7.180;2022-11-23T07:02:00;8.30;13.60
37956;DHT22;23776;51.592;7.180;2022-11-23T07:04:26;8.30;12.30
37956;DHT22;23776;51.592;7.180;2022-11-23T07:06:51;8.90;11.00
37956;DHT22;23776;51.592;7.180;2022-11-23T07:09:17;8.30;9.30
37956;DHT22;23776;51.592;7.180;2022-11-23T07:11:42;8.30;12.90
37956;DHT22;23776;51.592;7.180;2022-11-23T07:14:08;8.40;6.10
37956;DHT22;23776;51.592;7.180;2022-11-23T07:16:34;8.50;1.00
37956;DHT22;23776;51.592;7.180;2022-11-23T07:18:59;8.50;1.00
37956;DHT22;23776;51.592;7.180;2022-11-23T07:21:25;8.50;1.00
37956;DHT22;23776;51.592;7.180;2022-11-23T07:23:50;8.50;1.00
37956;DHT22;23776;51.592;7.180;2022-11-23T07:26:17;8.50;1.00
37956;DHT22;23776;51.592;7.180;2022-11-23T07:28:42;8.50;1.00
37956;DHT22;23776;51.592;7.180;2022-11-23T07:31:08;8.60;1.00
37956;DHT22;23776;51.592;7.180;2022-11-23T07:33:33;8.60;1.00
37956;DHT22;23776;51.592;7.180;2022-11-23T07:36:02;8.60;1.00
37956;DHT22;23776;51.592;7.180;2022-11-23T07:38:29;8.50;1.00
37956;DHT22;23776;51.592;7.180;2022-11-23T07:40:55;8.60;1.00
37956;DHT22;23776;51.592;7.180;2022-11-23T07:43:20;8.60;1.00
37956;DHT22;23776;51.592;7.180;2022-11-23T07:45:46;8.50;1.00
37956;DHT22;23776;51.592;7.180;2022-11-23T07:48:12;8.50;1.00
37956;DHT22;23776;51.592;7.180;2022-11-23T07:50:38;8.70;1.00
37956;DHT22;23776;51.592;7.180;2022-11-23T07:53:05;8.50;1.00
37956;DHT22;23776;51.592;7.180;2022-11-23T07:55:31;8.60;1.00
37956;DHT22;23776;51.592;7.180;2022-11-23T07:57:58;8.60;1.00
37956;DHT22;23776;51.592;7.180;2022-11-23T08:00:25;8.70;1.00
37956;DHT22;23776;51.592;7.180;2022-11-23T08:02:51;8.80;1.00
37956;DHT22;23776;51.592;7.180;2022-11-23T08:05:17;8.80;1.00
37956;DHT22;23776;51.592;7.180;2022-11-23T08:07:43;8.80;1.00
37956;DHT22;23776;51.592;7.180;2022-11-23T08:10:11;8.80;1.00
37956;DHT22;23776;51.592;7.180;2022-11-23T08:12:36;8.80;1.00
37956;DHT22;23776;51.592;7.180;2022-11-23T08:15:02;8.90;1.00
37956;DHT22;23776;51.592;7.180;2022-11-23T08:17:28;8.90;1.00
37956;DHT22;23776;51.592;7.180;2022-11-23T08:19:54;8.90;1.00
37956;DHT22;23776;51.592;7.180;2022-11-23T08:22:19;9.00;1.00
37956;DHT22;23776;51.592;7.180;2022-11-23T08:24:45;9.00;1.00
37956;DHT22;23776;51.592;7.180;2022-11-23T08:27:12;9.00;1.00
37956;DHT22;23776;51.592;7.180;2022-11-23T08:29:37;9.10;1.00
37956;DHT22;23776;51.592;7.180;2022-11-23T08:32:03;9.20;99.90
37956;DHT22;23776;51.592;7.180;2022-11-23T08:34:29;9.30;99.90
37956;DHT22;23776;51.592;7.180;2022-11-23T08:36:54;9.30;99.90
37956;DHT22;23776;51.592;7.180;2022-11-23T08:39:20;9.40;99.90
37956;DHT22;23776;51.592;7.180;2022-11-23T08:41:45;9.40;99.90
37956;DHT22;23776;51.592;7.180;2022-11-23T08:44:11;9.40;99.90
37956;DHT22;23776;51.592;7.180;2022-11-23T08:46:37;9.50;99.90
37956;DHT22;23776;51.592;7.180;2022-11-23T08:49:04;9.50;1.00
37956;DHT22;23776;51.592;7.180;2022-11-23T08:51:30;9.60;1.00
37956;DHT22;23776;51.592;7.180;2022-11-23T08:53:56;9.70;1.00
37956;DHT22;23776;51.592;7.180;2022-11-23T08:56:22;9.80;1.00
37956;DHT22;23776;51.592;7.180;2022-11-23T08:58:47;9.90;1.00
37956;DHT22;23776;51.592;7.180;2022-11-23T09:01:14;10.00;99.90
37956;DHT22;23776;51.592;7.180;2022-11-23T09:03:41;10.00;99.90
37956;DHT22;23776;51.592;7.180;2022-11-23T09:06:08;10.00;19.30
37956;DHT22;23776;51.592;7.180;2022-11-23T09:08:34;10.10;99.90
37956;DHT22;23776;51.592;7.180;2022-11-23T09:11:05;10.10;1.00
37956;DHT22;23776;51.592;7.180;2022-11-23T09:13:31;10.30;1.00
37956;DHT22;23776;51.592;7.180;2022-11-23T09:15:59;10.40;1.00
37956;DHT22;23776;51.592;7.180;2022-11-23T09:18:26;10.40;99.90
37956;DHT22;23776;51.592;7.180;2022-11-23T09:20:53;10.40;99.90
37956;DHT22;23776;51.592;7.180;2022-11-23T09:23:18;10.40;1.00
37956;DHT22;23776;51.592;7.180;2022-11-23T09:25:44;10.40;99.90
37956;DHT22;23776;51.592;7.180;2022-11-23T09:28:13;10.30;99.90
37956;DHT22;23776;51.592;7.180;2022-11-23T09:30:40;10.30;1.00
37956;DHT22;23776;51.592;7.180;2022-11-23T09:33:06;10.30;1.00
37956;DHT22;23776;51.592;7.180;2022-11-23T09:35:33;10.30;1.00
37956;DHT22;23776;51.592;7.180;2022-11-23T09:37:59;10.30;1.00
37956;DHT22;23776;51.592;7.180;2022-11-23T09:40:30;10.20;99.90
37956;DHT22;23776;51.592;7.180;2022-11-23T09:45:52;10.30;99.90
37956;DHT22;23776;51.592;7.180;2022-11-23T09:48:47;10.20;13.00
37956;DHT22;23776;51.592;7.180;2022-11-23T09:51:18;10.30;99.90
37956;DHT22;23776;51.592;7.180;2022-11-23T09:53:58;10.30;99.90
37956;DHT22;23776;51.592;7.180;2022-11-23T09:56:31;10.40;14.20
37956;DHT22;23776;51.592;7.180;2022-11-23T09:59:01;10.50;1.00
37956;DHT22;23776;51.592;7.180;2022-11-23T10:01:27;10.50;99.90
37956;DHT22;23776;51.592;7.180;2022-11-23T10:03:54;10.40;99.90
37956;DHT22;23776;51.592;7.180;2022-11-23T10:06:28;10.50;99.90
37956;DHT22;23776;51.592;7.180;2022-11-23T11:36:27;15.80;99.90
37956;DHT22;23776;51.592;7.180;2022-11-23T11:38:55;16.00;99.90
37956;DHT22;23776;51.592;7.180;2022-11-23T11:41:24;15.80;99.90
37956;DHT22;23776;51.592;7.180;2022-11-23T11:43:57;15.50;99.90
37956;DHT22;23776;51.592;7.180;2022-11-23T11:46:32;15.60;99.90
37956;DHT22;23776;51.592;7.180;2022-11-23T11:49:18;15.20;99.90
37956;DHT22;23776;51.592;7.180;2022-11-23T11:51:49;14.80;99.90
37956;DHT22;23776;51.592;7.180;2022-11-23T11:56:56;14.40;99.90
37956;DHT22;23776;51.592;7.180;2022-11-23T11:59:40;14.50;99.90
37956;DHT22;23776;51.592;7.180;2022-11-23T12:05:10;15.20;99.90
37956;DHT22;23776;51.592;7.180;2022-11-23T12:08:00;14.90;99.90
37956;DHT22;23776;51.592;7.180;2022-11-23T12:13:43;13.40;99.90
37956;DHT22;23776;51.592;7.180;2022-11-23T12:25:10;12.20;1.00
37956;DHT22;23776;51.592;7.180;2022-11-23T12:30:42;12.00;1.00
37956;DHT22;23776;51.592;7.180;2022-11-23T12:41:21;12.20;1.00
37956;DHT22;23776;51.592;7.180;2022-11-23T12:47:25;12.20;1.00
37956;DHT22;23776;51.592;7.180;2022-11-23T12:55:23;12.30;1.00
37956;DHT22;23776;51.592;7.180;2022-11-23T12:58:07;12.40;1.00
37956;DHT22;23776;51.592;7.180;2022-11-23T13:00:38;12.70;1.00
37956;DHT22;23776;51.592;7.180;2022-11-23T13:03:24;13.20;1.00
37956;DHT22;23776;51.592;7.180;2022-11-23T13:09:08;13.10;1.00
37956;DHT22;23776;51.592;7.180;2022-11-23T13:19:30;12.90;1.00
37956;DHT22;23776;51.592;7.180;2022-11-23T13:21:58;13.30;1.00
37956;DHT22;23776;51.592;7.180;2022-11-23T13:24:26;13.70;1.00
37956;DHT22;23776;51.592;7.180;2022-11-23T13:40:30;13.10;99.90
37956;DHT22;23776;51.592;7.180;2022-11-23T13:45:40;12.60;1.00
37956;DHT22;23776;51.592;7.180;2022-11-23T13:50:39;12.20;1.00
37956;DHT22;23776;51.592;7.180;2022-11-23T13:53:20;12.20;1.00
37956;DHT22;23776;51.592;7.180;2022-11-23T13:55:47;11.90;1.00
37956;DHT22;23776;51.592;7.180;2022-11-23T14:09:00;11.70;1.00
37956;DHT22;23776;51.592;7.180;2022-11-23T14:11:27;11.60;1.00
37956;DHT22;23776;51.592;7.180;2022-11-23T14:13:57;11.60;1.00
37956;DHT22;23776;51.592;7.180;2022-11-23T14:28:36;11.10;32.70
37956;DHT22;23776;51.592;7.180;2022-11-23T14:36:19;10.80;99.90
37956;DHT22;23776;51.592;7.180;2022-11-23T14:39:08;10.70;99.90
37956;DHT22;23776;51.592;7.180;2022-11-23T14:41:41;10.60;99.90
37956;DHT22;23776;51.592;7.180;2022-11-23T14:44:12;10.60;99.90
37956;DHT22;23776;51.592;7.180;2022-11-23T14:47:02;10.50;99.90
37956;DHT22;23776;51.592;7.180;2022-11-23T14:49:28;10.40;99.90
37956;DHT22;23776;51.592;7.180;2022-11-23T14:51:54;10.40;1.00
37956;DHT22;23776;51.592;7.180;2022-11-23T14:54:20;10.20;99.90
37956;DHT22;23776;51.592;7.180;2022-11-23T14:56:48;10.20;1.00
37956;DHT22;23776;51.592;7.180;2022-11-23T14:59:35;10.20;1.00
37956;DHT22;23776;51.592;7.180;2022-11-23T15:02:16;10.20;1.00
37956;DHT22;23776;51.592;7.180;2022-11-23T15:07:26;10.00;1.00
37956;DHT22;23776;51.592;7.180;2022-11-23T15:12:44;9.90;32.80
37956;DHT22;23776;51.592;7.180;2022-11-23T15:17:53;9.90;97.70
37956;DHT22;23776;51.592;7.180;2022-11-23T15:20:19;9.90;99.90
37956;DHT22;23776;51.592;7.180;2022-11-23T15:22:44;9.80;99.90
37956;DHT22;23776;51.592;7.180;2022-11-23T15:25:14;9.80;99.90
37956;DHT22;23776;51.592;7.180;2022-11-23T15:27:41;9.90;99.90
37956;DHT22;23776;51.592;7.180;2022-11-23T15:30:33;9.90;99.90
37956;DHT22;23776;51.592;7.180;2022-11-23T15:33:01;10.00;99.90
37956;DHT22;23776;51.592;7.180;2022-11-23T15:35:34;10.00;99.90
37956;DHT22;23776;51.592;7.180;2022-11-23T15:38:02;10.00;99.90
37956;DHT22;23776;51.592;7.180;2022-11-23T15:40:31;10.10;99.90
37956;DHT22;23776;51.592;7.180;2022-11-23T15:42:58;10.10;99.90
37956;DHT22;23776;51.592;7.180;2022-11-23T15:48:12;11.50;99.90
37956;DHT22;23776;51.592;7.180;2022-11-23T15:50:51;10.10;99.90
37956;DHT22;23776;51.592;7.180;2022-11-23T15:53:19;10.10;99.90
37956;DHT22;23776;51.592;7.180;2022-11-23T15:55:45;10.10;96.10
37956;DHT22;23776;51.592;7.180;2022-11-23T15:58:17;10.20;94.10
37956;DHT22;23776;51.592;7.180;2022-11-23T16:00:52;10.20;30.70
37956;DHT22;23776;51.592;7.180;2022-11-23T16:08:37;10.20;1.00
37956;DHT22;23776;51.592;7.180;2022-11-23T16:11:22;10.10;23.80
37956;DHT22;23776;51.592;7.180;2022-11-23T16:13:51;10.20;1.00
37956;DHT22;23776;51.592;7.180;2022-11-23T16:16:19;10.20;45.50
37956;DHT22;23776;51.592;7.180;2022-11-23T16:18:48;10.20;21.90
37956;DHT22;23776;51.592;7.180;2022-11-23T16:21:18;10.10;28.20
37956;DHT22;23776;51.592;7.180;2022-11-23T16:23:49;10.10;99.90
37956;DHT22;23776;51.592;7.180;2022-11-23T16:26:16;10.10;99.90
37956;DHT22;23776;51.592;7.180;2022-11-23T16:28:50;10.10;99.90
37956;DHT22;23776;51.592;7.180;2022-11-23T16:33:54;10.20;99.90
37956;DHT22;23776;51.592;7.180;2022-11-23T16:36:20;10.10;99.90
37956;DHT22;23776;51.592;7.180;2022-11-23T16:38:45;10.10;99.90
37956;DHT22;23776;51.592;7.180;2022-11-23T16:41:11;10.30;99.90
37956;DHT22;23776;51.592;7.180;2022-11-23T16:43:36;10.10;99.90
37956;DHT22;23776;51.592;7.180;2022-11-23T16:46:02;10.10;1.00
37956;DHT22;23776;51.592;7.180;2022-11-23T16:48:36;10.10;1.00
37956;DHT22;23776;51.592;7.180;2022-11-23T16:51:02;10.00;99.90
37956;DHT22;23776;51.592;7.180;2022-11-23T16:53:28;10.00;99.90
37956;DHT22;23776;51.592;7.180;2022-11-23T16:55:56;10.00;1.00
37956;DHT22;23776;51.592;7.180;2022-11-23T16:58:23;10.00;99.90
37956;DHT22;23776;51.592;7.180;2022-11-23T17:00:50;9.80;1.00
37956;DHT22;23776;51.592;7.180;2022-11-23T17:03:19;9.80;99.90
37956;DHT22;23776;51.592;7.180;2022-11-23T17:05:46;9.70;1.00
37956;DHT22;23776;51.592;7.180;2022-11-23T17:08:12;9.70;1.00
37956;DHT22;23776;51.592;7.180;2022-11-23T17:10:39;9.60;1.00
37956;DHT22;23776;51.592;7.180;2022-11-23T17:13:21;9.50;32.70
37956;DHT22;23776;51.592;7.180;2022-11-23T17:15:47;9.30;1.00
37956;DHT22;23776;51.592;7.180;2022-11-23T17:18:14;9.20;2.20
37956;DHT22;23776;51.592;7.180;2022-11-23T17:20:40;9.20;99.90
37956;DHT22;23776;51.592;7.180;2022-11-23T17:23:06;9.10;99.90
37956;DHT22;23776;51.592;7.180;2022-11-23T17:25:34;8.90;99.90
37956;DHT22;23776;51.592;7.180;2022-11-23T17:28:00;8.90;99.90
37956;DHT22;23776;51.592;7.180;2022-11-23T17:30:27;8.80;99.90
37956;DHT22;23776;51.592;7.180;2022-11-23T17:32:53;8.80;99.90
37956;DHT22;23776;51.592;7.180;2022-11-23T17:35:19;8.70;1.00
37956;DHT22;23776;51.592;7.180;2022-11-23T17:37:45;8.70;1.00
37956;DHT22;23776;51.592;7.180;2022-11-23T17:40:19;8.70;1.00
37956;DHT22;23776;51.592;7.180;2022-11-23T17:42:45;8.60;1.00
37956;DHT22;23776;51.592;7.180;2022-11-23T17:45:12;8.70;1.00
37956;DHT22;23776;51.592;7.180;2022-11-23T17:47:38;8.50;1.00
37956;DHT22;23776;51.592;7.180;2022-11-23T17:50:05;8.50;1.00
37956;DHT22;23776;51.592;7.180;2022-11-23T17:52:32;8.40;1.00
37956;DHT22;23776;51.592;7.180;2022-11-23T17:54:57;8.30;1.00
37956;DHT22;23776;51.592;7.180;2022-11-23T17:57:25;8.20;1.00
37956;DHT22;23776;51.592;7.180;2022-11-23T17:59:52;8.10;1.00
37956;DHT22;23776;51.592;7.180;2022-11-23T18:02:18;8.10;1.00
37956;DHT22;23776;51.592;7.180;2022-11-23T18:04:45;8.10;1.00
37956;DHT22;23776;51.592;7.180;2022-11-23T18:07:15;8.10;1.00
37956;DHT22;23776;51.592;7.180;2022-11-23T18:09:41;8.00;1.00
37956;DHT22;23776;51.592;7.180;2022-11-23T18:12:08;8.10;1.00
37956;DHT22;23776;51.592;7.180;2022-11-23T18:14:34;8.10;1.00
37956;DHT22;23776;51.592;7.180;2022-11-23T18:17:00;8.10;1.00
37956;DHT22;23776;51.592;7.180;2022-11-23T18:19:25;8.10;1.00
37956;DHT22;23776;51.592;7.180;2022-11-23T18:21:51;8.10;1.00
37956;DHT22;23776;51.592;7.180;2022-11-23T18:24:17;8.10;1.00
37956;DHT22;23776;51.592;7.180;2022-11-23T18:26:42;8.20;1.00
37956;DHT22;23776;51.592;7.180;2022-11-23T18:29:08;8.20;1.00
37956;DHT22;23776;51.592;7.180;2022-11-23T18:31:36;8.10;1.00
37956;DHT22;23776;51.592;7.180;2022-11-23T18:34:01;8.10;1.00
37956;DHT22;23776;51.592;7.180;2022-11-23T18:36:29;8.20;1.00
37956;DHT22;23776;51.592;7.180;2022-11-23T18:38:55;8.10;1.00
37956;DHT22;23776;51.592;7.180;2022-11-23T18:41:21;8.10;1.00
37956;DHT22;23776;51.592;7.180;2022-11-23T18:43:47;8.20;1.00
37956;DHT22;23776;51.592;7.180;2022-11-23T18:46:13;8.20;1.00
37956;DHT22;23776;51.592;7.180;2022-11-23T18:48:44;8.30;1.00
37956;DHT22;23776;51.592;7.180;2022-11-23T18:51:10;8.20;1.00
37956;DHT22;23776;51.592;7.180;2022-11-23T18:53:37;8.20;1.00
37956;DHT22;23776;51.592;7.180;2022-11-23T18:56:04;8.20;1.00
37956;DHT22;23776;51.592;7.180;2022-11-23T18:58:35;8.30;1.00
37956;DHT22;23776;51.592;7.180;2022-11-23T19:03:37;8.30;1.00
37956;DHT22;23776;51.592;7.180;2022-11-23T19:06:04;8.30;1.00
37956;DHT22;23776;51.592;7.180;2022-11-23T19:08:30;8.30;1.00
37956;DHT22;23776;51.592;7.180;2022-11-23T19:11:07;8.30;1.00
37956;DHT22;23776;51.592;7.180;2022-11-23T19:13:37;8.30;1.00
37956;DHT22;23776;51.592;7.180;2022-11-23T19:16:14;8.30;1.00
37956;DHT22;23776;51.592;7.180;2022-11-23T19:18:40;8.30;1.00
37956;DHT22;23776;51.592;7.180;2022-11-23T19:21:20;8.40;1.00
37956;DHT22;23776;51.592;7.180;2022-11-23T19:23:50;8.40;1.00
37956;DHT22;23776;51.592;7.180;2022-11-23T19:26:17;8.40;1.00
37956;DHT22;23776;51.592;7.180;2022-11-23T19:28:43;8.40;1.00